createdAt,value
2022-07-27T00:00:20.476Z,98103.59
2022-07-27T00:02:25.336Z,98094.22
2022-07-27T00:04:31.557Z,98099.66
2022-07-27T00:06:39.297Z,98097.41
2022-07-27T00:08:44.184Z,98099.75
2022-07-27T00:10:50.300Z,98100.72
2022-07-27T00:12:55.242Z,98095.31
2022-07-27T00:15:00.889Z,98095.56
2022-07-27T00:17:05.863Z,98091.38
2022-07-27T00:19:11.172Z,98088.00
2022-07-27T00:23:23.690Z,98090.78
2022-07-27T00:25:29.556Z,98099.69
2022-07-27T00:27:34.468Z,98108.63
2022-07-27T00:29:39.402Z,98108.63
2022-07-27T00:31:44.262Z,98120.59
2022-07-27T00:33:49.335Z,98126.56
2022-07-27T00:35:54.190Z,98129.91
2022-07-27T00:37:59.094Z,98121.97
2022-07-27T00:40:09.230Z,98113.56
2022-07-27T00:42:14.114Z,98117.84
2022-07-27T00:44:28.081Z,98113.72
2022-07-27T00:46:33.092Z,98120.94
2022-07-27T00:48:37.978Z,98116.63
2022-07-27T00:50:45.530Z,98107.72
2022-07-27T00:52:51.438Z,98109.38
2022-07-27T00:54:56.599Z,98102.16
2022-07-27T00:57:04.111Z,98104.22
2022-07-27T00:59:10.889Z,98110.34
2022-07-27T01:01:16.472Z,98103.78
2022-07-27T01:03:23.272Z,98104.78
2022-07-27T01:05:36.603Z,98100.13
2022-07-27T01:07:43.486Z,98098.78
2022-07-27T01:10:00.923Z,98106.16
2022-07-27T01:12:11.320Z,98110.81
2022-07-27T01:14:19.195Z,98104.53
2022-07-27T01:16:24.322Z,98103.53
2022-07-27T01:18:31.453Z,98109.38
2022-07-27T01:20:37.599Z,98106.06
2022-07-27T01:22:45.082Z,98109.09
2022-07-27T01:24:50.890Z,98107.53
2022-07-27T01:26:56.205Z,98116.31
2022-07-27T01:29:02.402Z,98113.66
2022-07-27T01:31:07.409Z,98114.72
2022-07-27T01:33:13.214Z,98111.03
2022-07-27T01:35:18.091Z,98105.25
2022-07-27T01:37:26.005Z,98100.75
2022-07-27T01:39:34.508Z,98103.78
2022-07-27T01:41:39.319Z,98101.84
2022-07-27T01:43:45.229Z,98107.69
2022-07-27T01:45:50.486Z,98102.69
2022-07-27T01:47:56.417Z,98111.31
2022-07-27T01:50:01.364Z,98107.13
2022-07-27T01:52:06.385Z,98099.31
2022-07-27T01:54:11.293Z,98097.06
2022-07-27T01:56:19.063Z,98104.66
2022-07-27T01:58:24.168Z,98099.63
2022-07-27T02:00:28.804Z,98095.97
2022-07-27T02:02:33.682Z,98091.19
2022-07-27T02:04:38.597Z,98087.66
2022-07-27T02:06:43.756Z,98088.59
2022-07-27T02:08:48.674Z,98091.66
2022-07-27T02:11:06.016Z,98099.19
2022-07-27T02:13:23.059Z,98085.28
2022-07-27T02:15:42.131Z,98086.47
2022-07-27T02:17:49.182Z,98087.97
2022-07-27T02:19:55.416Z,98088.94
2022-07-27T02:21:59.975Z,98082.69
2022-07-27T02:24:05.234Z,98087.25
2022-07-27T02:26:11.648Z,98084.75
2022-07-27T02:28:19.147Z,98081.84
2022-07-27T02:30:24.055Z,98086.78
2022-07-27T02:32:29.009Z,98076.88
2022-07-27T02:34:33.871Z,98080.72
2022-07-27T02:36:38.812Z,98075.31
2022-07-27T02:38:43.596Z,98081.31
2022-07-27T02:40:48.468Z,98073.19
2022-07-27T02:42:53.386Z,98073.44
2022-07-27T02:45:00.888Z,98069.81
2022-07-27T02:47:05.726Z,98075.00
2022-07-27T02:49:11.321Z,98071.63
2022-07-27T02:51:16.817Z,98069.81
2022-07-27T02:53:21.723Z,98069.72
2022-07-27T02:55:26.956Z,98074.03
2022-07-27T02:57:34.419Z,98073.19
2022-07-27T02:59:40.803Z,98077.75
2022-07-27T03:01:49.035Z,98086.50
2022-07-27T03:03:53.960Z,98084.09
2022-07-27T03:05:59.020Z,98081.34
2022-07-27T03:08:04.368Z,98081.69
2022-07-27T03:10:10.306Z,98091.16
2022-07-27T03:12:15.191Z,98086.50
2022-07-27T03:14:20.211Z,98090.69
2022-07-27T03:16:25.222Z,98084.97
2022-07-27T03:18:32.597Z,98089.28
2022-07-27T03:20:38.116Z,98085.19
2022-07-27T03:22:43.101Z,98092.28
2022-07-27T03:24:47.946Z,98092.03
2022-07-27T03:26:52.911Z,98092.63
2022-07-27T03:28:57.737Z,98085.41
2022-07-27T03:31:03.906Z,98085.88
2022-07-27T03:33:08.872Z,98086.03
2022-07-27T03:35:16.534Z,98093.81
2022-07-27T03:37:21.830Z,98093.56
2022-07-27T03:39:27.015Z,98096.91
2022-07-27T03:41:32.072Z,98101.00
2022-07-27T03:43:36.866Z,98105.78
2022-07-27T03:45:41.834Z,98110.94
2022-07-27T03:47:46.785Z,98111.31
2022-07-27T03:49:52.880Z,98104.38
2022-07-27T03:52:00.448Z,98111.56
2022-07-27T03:54:05.863Z,98117.22
2022-07-27T03:56:10.881Z,98111.81
2022-07-27T03:58:15.868Z,98115.06
2022-07-27T04:00:21.003Z,98112.53
2022-07-27T04:02:25.909Z,98103.91
2022-07-27T04:04:31.077Z,98105.75
2022-07-27T04:06:35.933Z,98106.81
2022-07-27T04:08:43.504Z,98101.44
2022-07-27T04:10:48.459Z,98099.66
2022-07-27T04:12:53.789Z,98106.50
2022-07-27T04:14:58.683Z,98115.03
2022-07-27T04:17:03.879Z,98115.47
2022-07-27T04:19:08.684Z,98115.00
2022-07-27T04:21:16.089Z,98116.66
2022-07-27T04:23:20.909Z,98126.09
2022-07-27T04:25:28.474Z,98125.50
2022-07-27T04:27:33.558Z,98121.19
2022-07-27T04:29:38.445Z,98121.88
2022-07-27T04:31:43.337Z,98120.22
2022-07-27T04:33:48.328Z,98125.38
2022-07-27T04:35:53.179Z,98120.47
2022-07-27T04:37:59.859Z,98126.16
2022-07-27T04:40:05.007Z,98127.56
2022-07-27T04:42:12.705Z,98135.47
2022-07-27T04:44:18.567Z,98135.69
2022-07-27T04:46:23.734Z,98144.19
2022-07-27T04:48:28.388Z,98145.06
2022-07-27T04:50:33.250Z,98145.16
2022-07-27T04:52:38.611Z,98139.28
2022-07-27T04:54:43.508Z,98140.34
2022-07-27T04:56:48.518Z,98141.53
2022-07-27T04:58:56.045Z,98147.00
2022-07-27T05:01:01.105Z,98151.41
2022-07-27T05:03:06.463Z,98160.88
2022-07-27T05:05:11.567Z,98152.59
2022-07-27T05:07:16.512Z,98150.38
2022-07-27T05:09:22.610Z,98151.47
2022-07-27T05:11:27.645Z,98152.13
2022-07-27T05:13:32.538Z,98148.19
2022-07-27T05:15:55.132Z,98150.69
2022-07-27T05:18:00.899Z,98140.50
2022-07-27T05:20:06.856Z,98135.94
2022-07-27T05:22:11.831Z,98131.84
2022-07-27T05:24:16.710Z,98137.03
2022-07-27T05:26:25.907Z,98149.53
2022-07-27T05:28:31.318Z,98149.78
2022-07-27T05:30:36.414Z,98158.88
2022-07-27T05:32:43.683Z,98157.53
2022-07-27T05:34:48.839Z,98160.16
2022-07-27T05:36:53.417Z,98164.69
2022-07-27T05:38:58.380Z,98172.31
2022-07-27T05:41:03.336Z,98172.81
2022-07-27T05:43:08.179Z,98175.25
2022-07-27T05:45:16.925Z,98166.88
2022-07-27T05:47:21.783Z,98169.31
2022-07-27T05:49:29.351Z,98176.03
2022-07-27T05:51:34.398Z,98176.91
2022-07-27T05:53:39.389Z,98174.44
2022-07-27T05:55:58.628Z,98173.88
2022-07-27T05:58:05.053Z,98173.19
2022-07-27T06:00:11.996Z,98173.38
2022-07-27T06:02:19.811Z,98177.72
2022-07-27T06:04:24.808Z,98178.47
2022-07-27T06:06:44.712Z,98188.50
2022-07-27T06:08:49.637Z,98183.09
2022-07-27T06:10:54.368Z,98175.09
2022-07-27T06:12:59.719Z,98173.16
2022-07-27T06:15:04.576Z,98169.09
2022-07-27T06:17:10.980Z,98173.03
2022-07-27T06:19:16.205Z,98168.78
2022-07-27T06:21:20.823Z,98171.59
2022-07-27T06:23:28.755Z,98168.03
2022-07-27T06:25:36.549Z,98169.56
2022-07-27T06:27:41.625Z,98176.09
2022-07-27T06:29:46.218Z,98182.25
2022-07-27T06:31:51.156Z,98183.94
2022-07-27T06:33:57.758Z,98185.94
2022-07-27T06:36:08.522Z,98177.44
2022-07-27T06:38:13.788Z,98185.97
2022-07-27T06:40:24.426Z,98180.84
2022-07-27T06:42:31.416Z,98176.81
2022-07-27T06:44:36.421Z,98173.50
2022-07-27T06:46:41.384Z,98179.53
2022-07-27T06:48:46.595Z,98186.69
2022-07-27T06:50:51.272Z,98178.31
2022-07-27T06:52:56.102Z,98177.22
2022-07-27T06:55:01.020Z,98181.84
2022-07-27T06:57:08.576Z,98184.88
2022-07-27T06:59:16.100Z,98186.44
2022-07-27T07:01:21.145Z,98186.59
2022-07-27T07:03:26.337Z,98190.50
2022-07-27T07:05:31.442Z,98175.88
2022-07-27T07:07:36.340Z,98173.34
2022-07-27T07:09:41.399Z,98164.41
2022-07-27T07:11:46.256Z,98172.41
2022-07-27T07:13:53.772Z,98171.00
2022-07-27T07:15:59.658Z,98173.25
2022-07-27T07:18:05.706Z,98171.72
2022-07-27T07:20:12.360Z,98169.75
2022-07-27T07:22:20.067Z,98174.34
2022-07-27T07:24:25.193Z,98166.66
2022-07-27T07:26:30.035Z,98165.84
2022-07-27T07:28:37.065Z,98165.41
2022-07-27T07:30:44.512Z,98164.03
2022-07-27T07:32:49.538Z,98162.22
2022-07-27T07:34:56.360Z,98163.03
2022-07-27T07:37:01.260Z,98168.44
2022-07-27T07:39:06.582Z,98161.75
2022-07-27T07:41:11.553Z,98167.91
2022-07-27T07:43:16.801Z,98152.97
2022-07-27T07:45:21.888Z,98153.78
2022-07-27T07:47:29.140Z,98157.16
2022-07-27T07:49:37.979Z,98154.63
2022-07-27T07:51:45.576Z,98151.66
2022-07-27T07:53:50.453Z,98146.72
2022-07-27T07:55:56.873Z,98148.41
2022-07-27T07:58:02.006Z,98153.22
2022-07-27T08:00:09.710Z,98151.09
2022-07-27T08:02:21.029Z,98149.91
2022-07-27T08:04:28.562Z,98149.53
2022-07-27T08:06:33.547Z,98149.28
2022-07-27T08:08:38.325Z,98152.25
2022-07-27T08:10:43.260Z,98152.25
2022-07-27T08:12:50.675Z,98148.91
2022-07-27T08:14:55.573Z,98153.41
2022-07-27T08:17:00.487Z,98157.91
2022-07-27T08:19:05.254Z,98160.56
2022-07-27T08:21:12.864Z,98162.63
2022-07-27T08:23:18.517Z,98159.41
2022-07-27T08:25:23.439Z,98166.16
2022-07-27T08:27:28.504Z,98167.06
2022-07-27T08:29:36.913Z,98169.00
2022-07-27T08:31:51.678Z,98170.03
2022-07-27T08:33:57.717Z,98167.75
2022-07-27T08:36:02.643Z,98161.84
2022-07-27T08:38:11.957Z,98159.97
2022-07-27T08:42:45.693Z,98162.00
2022-07-27T08:44:54.742Z,98153.88
2022-07-27T08:47:00.189Z,98159.97
2022-07-27T08:49:05.407Z,98163.38
2022-07-27T08:51:10.511Z,98165.50
2022-07-27T08:53:18.491Z,98157.28
2022-07-27T08:55:24.015Z,98167.84
2022-07-27T08:57:28.882Z,98162.75
2022-07-27T08:59:33.818Z,98156.66
2022-07-27T09:01:39.563Z,98152.56
2022-07-27T09:03:44.713Z,98155.31
2022-07-27T09:05:54.160Z,98154.06
2022-07-27T09:08:11.986Z,98160.00
2022-07-27T09:10:32.090Z,98159.00
2022-07-27T09:12:37.178Z,98161.59
2022-07-27T09:14:43.894Z,98157.63
2022-07-27T09:19:16.934Z,98164.19
2022-07-27T09:21:23.648Z,98167.44
2022-07-27T09:23:30.092Z,98165.84
2022-07-27T09:26:02.093Z,98164.00
2022-07-27T09:28:03.343Z,98162.88
2022-07-27T09:30:09.427Z,98155.91
2022-07-27T09:32:17.062Z,98161.16
2022-07-27T09:34:30.952Z,98160.97
2022-07-27T09:36:35.992Z,98165.84
2022-07-27T09:38:40.547Z,98158.03
2022-07-27T09:40:49.807Z,98158.13
2022-07-27T09:44:19.761Z,98151.50
2022-07-27T09:45:40.261Z,98157.47
2022-07-27T09:47:46.934Z,98160.22
2022-07-27T09:49:51.867Z,98153.94
2022-07-27T09:52:00.593Z,98153.06
2022-07-27T09:54:11.447Z,98152.50
2022-07-27T09:56:19.144Z,98155.84
2022-07-27T09:58:23.943Z,98158.03
2022-07-27T10:00:29.805Z,98154.25
2022-07-27T10:02:34.743Z,98159.41
2022-07-27T10:04:39.630Z,98163.38
2022-07-27T10:07:01.768Z,98161.84
2022-07-27T10:09:07.595Z,98161.34
2022-07-27T10:11:12.290Z,98165.44
2022-07-27T10:13:20.124Z,98166.81
2022-07-27T10:15:26.017Z,98166.94
2022-07-27T10:17:31.411Z,98173.97
2022-07-27T10:19:44.089Z,98166.19
2022-07-27T10:21:50.414Z,98169.59
2022-07-27T10:24:00.351Z,98177.72
2022-07-27T10:26:21.474Z,98175.50
2022-07-27T10:28:32.591Z,98176.69
2022-07-27T10:30:37.698Z,98181.44
2022-07-27T10:32:44.912Z,98175.34
2022-07-27T10:34:51.940Z,98176.25
2022-07-27T10:36:57.078Z,98177.63
2022-07-27T10:39:03.917Z,98175.53
2022-07-27T10:41:24.279Z,98184.13
2022-07-27T10:43:33.289Z,98181.41
2022-07-27T10:45:58.278Z,98182.94
2022-07-27T10:48:07.842Z,98189.56
2022-07-27T10:50:25.109Z,98192.38
2022-07-27T10:52:44.311Z,98184.13
2022-07-27T10:54:53.575Z,98186.72
2022-07-27T10:57:06.907Z,98186.72
2022-07-27T10:59:16.229Z,98196.53
2022-07-27T11:01:25.131Z,98195.25
2022-07-27T11:03:33.583Z,98198.84
2022-07-27T11:06:00.073Z,98199.06
2022-07-27T11:10:30.273Z,98187.91
2022-07-27T11:12:35.166Z,98183.72
2022-07-27T11:14:49.698Z,98181.72
2022-07-27T11:16:56.588Z,98182.59
2022-07-27T11:19:07.635Z,98191.22
2022-07-27T11:21:26.507Z,98184.34
2022-07-27T11:26:00.403Z,98177.59
2022-07-27T11:28:10.020Z,98179.34
2022-07-27T11:30:28.455Z,98175.44
2022-07-27T11:32:38.626Z,98184.81
2022-07-27T11:34:43.644Z,98180.84
2022-07-27T11:36:50.228Z,98173.00
2022-07-27T11:38:56.810Z,98177.03
2022-07-27T11:41:15.332Z,98186.03
2022-07-27T11:43:39.987Z,98172.50
2022-07-27T11:45:49.684Z,98185.81
2022-07-27T11:47:59.667Z,98183.59
2022-07-27T11:50:08.362Z,98183.16
2022-07-27T11:52:14.133Z,98186.00
2022-07-27T11:54:26.227Z,98182.34
2022-07-27T11:56:33.649Z,98177.94
2022-07-27T11:59:03.638Z,98173.00
2022-07-27T12:01:11.227Z,98179.25
2022-07-27T12:03:23.593Z,98181.41
2022-07-27T12:05:37.061Z,98185.13
2022-07-27T12:07:42.333Z,98184.69
2022-07-27T12:09:49.894Z,98182.50
2022-07-27T12:11:57.824Z,98181.38
2022-07-27T12:14:02.676Z,98176.22
2022-07-27T12:16:07.742Z,98173.06
2022-07-27T12:18:15.218Z,98170.38
2022-07-27T12:20:24.324Z,98175.41
2022-07-27T12:22:31.930Z,98173.88
2022-07-27T12:24:38.931Z,98173.94
2022-07-27T12:26:43.871Z,98180.16
2022-07-27T12:28:48.814Z,98180.13
2022-07-27T12:30:54.595Z,98176.63
2022-07-27T12:32:59.675Z,98177.13
2022-07-27T12:35:17.917Z,98170.25
2022-07-27T12:37:23.242Z,98171.50
2022-07-27T12:39:28.385Z,98173.41
2022-07-27T12:41:36.695Z,98179.50
2022-07-27T12:43:41.332Z,98185.56
2022-07-27T12:45:46.095Z,98176.81
2022-07-27T12:47:50.804Z,98177.19
2022-07-27T12:50:11.454Z,98178.78
2022-07-27T12:52:16.010Z,98173.16
2022-07-27T12:54:21.019Z,98172.00
2022-07-27T12:56:27.367Z,98171.16
2022-07-27T12:58:32.596Z,98168.81
2022-07-27T13:00:37.412Z,98171.44
2022-07-27T13:02:42.321Z,98168.41
2022-07-27T13:04:48.120Z,98163.25
2022-07-27T13:06:55.425Z,98161.28
2022-07-27T13:09:00.429Z,98163.88
2022-07-27T13:11:05.107Z,98163.13
2022-07-27T13:13:10.388Z,98163.31
2022-07-27T13:15:15.040Z,98155.13
2022-07-27T13:17:21.783Z,98156.00
2022-07-27T13:19:26.433Z,98158.19
2022-07-27T13:21:30.999Z,98156.94
2022-07-27T13:23:38.221Z,98154.91
2022-07-27T13:25:43.515Z,98149.13
2022-07-27T13:27:48.972Z,98162.53
2022-07-27T13:29:53.561Z,98157.38
2022-07-27T13:31:58.297Z,98160.78
2022-07-27T13:34:03.017Z,98164.41
2022-07-27T13:36:09.769Z,98157.28
2022-07-27T13:38:17.144Z,98153.03
2022-07-27T13:40:24.634Z,98152.88
2022-07-27T13:42:29.290Z,98143.19
2022-07-27T13:45:02.219Z,98145.88
2022-07-27T13:46:58.546Z,98150.03
2022-07-27T13:49:03.373Z,98150.16
2022-07-27T13:51:08.061Z,98152.38
2022-07-27T13:53:15.320Z,98148.38
2022-07-27T13:55:23.625Z,98148.53
2022-07-27T13:57:34.972Z,98149.56
2022-07-27T13:59:39.603Z,98147.88
2022-07-27T14:01:44.299Z,98148.34
2022-07-27T14:03:48.949Z,98144.34
2022-07-27T14:05:53.686Z,98145.53
2022-07-27T14:07:59.499Z,98139.16
2022-07-27T14:10:16.566Z,98147.28
2022-07-27T14:12:21.125Z,98149.97
2022-07-27T14:14:28.371Z,98140.78
2022-07-27T14:16:33.003Z,98152.00
2022-07-27T14:18:38.074Z,98145.09
2022-07-27T14:20:42.680Z,98138.50
2022-07-27T14:22:47.238Z,98140.19
2022-07-27T14:24:51.882Z,98131.97
2022-07-27T14:26:56.548Z,98136.28
2022-07-27T14:29:01.224Z,98127.03
2022-07-27T14:31:09.380Z,98135.09
2022-07-27T14:33:15.586Z,98143.34
2022-07-27T14:35:20.663Z,98139.25
2022-07-27T14:37:25.236Z,98134.28
2022-07-27T14:39:29.867Z,98145.03
2022-07-27T14:41:35.456Z,98146.56
2022-07-27T14:43:40.340Z,98146.00
2022-07-27T14:45:46.368Z,98133.59
2022-07-27T14:47:53.856Z,98148.56
2022-07-27T14:49:58.869Z,98142.72
2022-07-27T14:52:03.487Z,98131.44
2022-07-27T14:54:08.095Z,98142.66
2022-07-27T14:56:12.674Z,98139.25
2022-07-27T14:58:17.487Z,98130.66
2022-07-27T15:00:22.700Z,98134.81
2022-07-27T15:02:27.433Z,98129.41
2022-07-27T15:04:35.109Z,98129.69
2022-07-27T15:06:39.778Z,98123.28
2022-07-27T15:08:44.434Z,98119.88
2022-07-27T15:10:49.331Z,98116.94
2022-07-27T15:12:54.118Z,98117.84
2022-07-27T15:14:58.931Z,98126.78
2022-07-27T15:17:04.135Z,98122.00
2022-07-27T15:19:08.749Z,98125.03
2022-07-27T15:21:15.931Z,98125.16
2022-07-27T15:23:20.624Z,98122.38
2022-07-27T15:25:25.246Z,98118.44
2022-07-27T15:27:29.811Z,98127.44
2022-07-27T15:29:34.483Z,98118.00
2022-07-27T15:31:39.086Z,98119.59
2022-07-27T15:33:44.066Z,98125.13
2022-07-27T15:35:48.683Z,98118.00
2022-07-27T15:37:56.032Z,98115.50
2022-07-27T15:40:22.067Z,98126.84
2022-07-27T15:42:26.660Z,98116.75
2022-07-27T15:44:31.286Z,98122.22
2022-07-27T15:46:35.983Z,98117.09
2022-07-27T15:48:40.752Z,98121.53
2022-07-27T15:50:51.070Z,98123.03
2022-07-27T15:52:58.237Z,98107.25
2022-07-27T15:55:02.951Z,98116.63
2022-07-27T15:57:09.740Z,98114.47
2022-07-27T15:59:14.975Z,98112.81
2022-07-27T16:01:21.060Z,98107.09
2022-07-27T16:03:27.336Z,98118.63
2022-07-27T16:05:33.180Z,98116.06
2022-07-27T16:07:41.610Z,98105.75
2022-07-27T16:09:49.188Z,98110.25
2022-07-27T16:11:53.733Z,98100.66
2022-07-27T16:13:58.316Z,98100.13
2022-07-27T16:16:15.356Z,98104.13
2022-07-27T16:18:20.048Z,98105.84
2022-07-27T16:20:24.672Z,98100.22
2022-07-27T16:22:30.355Z,98100.34
2022-07-27T16:24:38.159Z,98102.34
2022-07-27T16:26:45.599Z,98103.59
2022-07-27T16:28:51.440Z,98095.69
2022-07-27T16:30:56.507Z,98103.97
2022-07-27T16:33:01.604Z,98097.97
2022-07-27T16:35:10.058Z,98097.59
2022-07-27T16:37:15.179Z,98094.78
2022-07-27T16:39:21.919Z,98090.88
2022-07-27T16:41:26.660Z,98097.88
2022-07-27T16:43:37.905Z,98101.03
2022-07-27T16:45:42.857Z,98107.00
2022-07-27T16:47:47.498Z,98109.03
2022-07-27T16:49:52.230Z,98104.19
2022-07-27T16:51:56.863Z,98105.28
2022-07-27T16:54:01.520Z,98104.53
2022-07-27T16:56:06.929Z,98099.22
2022-07-27T16:58:12.138Z,98098.97
2022-07-27T17:00:20.850Z,98100.31
2022-07-27T17:02:30.044Z,98105.66
2022-07-27T17:04:34.761Z,98105.16
2022-07-27T17:06:39.484Z,98103.66
2022-07-27T17:08:44.423Z,98102.66
2022-07-27T17:10:49.258Z,98101.16
2022-07-27T17:12:54.011Z,98108.38
2022-07-27T17:14:59.141Z,98108.69
2022-07-27T17:17:06.522Z,98108.69
2022-07-27T17:19:11.400Z,98110.50
2022-07-27T17:21:16.186Z,98104.16
2022-07-27T17:23:20.789Z,98105.84
2022-07-27T17:25:25.602Z,98103.66
2022-07-27T17:27:30.263Z,98103.28
2022-07-27T17:29:34.844Z,98106.47
2022-07-27T17:31:39.601Z,98107.25
2022-07-27T17:33:46.921Z,98100.94
2022-07-27T17:35:51.583Z,98106.56
2022-07-27T17:38:06.104Z,98106.72
2022-07-27T17:40:12.031Z,98110.03
2022-07-27T17:42:16.636Z,98107.91
2022-07-27T17:44:21.765Z,98100.72
2022-07-27T17:46:26.856Z,98104.91
2022-07-27T17:48:31.524Z,98099.69
2022-07-27T17:50:38.736Z,98109.00
2022-07-27T17:52:43.627Z,98109.19
2022-07-27T17:54:48.381Z,98109.19
2022-07-27T17:56:53.041Z,98104.00
2022-07-27T17:59:14.066Z,98103.31
2022-07-27T18:01:47.548Z,98105.59
2022-07-27T18:03:48.997Z,98109.31
2022-07-27T18:05:56.349Z,98111.25
2022-07-27T18:08:01.039Z,98112.25
2022-07-27T18:10:05.776Z,98111.53
2022-07-27T18:12:10.698Z,98111.22
2022-07-27T18:14:15.394Z,98108.88
2022-07-27T18:16:17.999Z,98110.69
2022-07-27T18:18:25.093Z,98120.47
2022-07-27T18:20:29.720Z,98120.28
2022-07-27T18:22:38.680Z,98128.75
2022-07-27T18:24:43.384Z,98126.94
2022-07-27T18:26:49.436Z,98130.88
2022-07-27T18:28:57.708Z,98131.19
2022-07-27T18:31:02.508Z,98133.03
2022-07-27T18:33:07.178Z,98131.50
2022-07-27T18:35:11.935Z,98130.44
2022-07-27T18:37:17.212Z,98130.56
2022-07-27T18:39:32.252Z,98136.50
2022-07-27T18:41:40.749Z,98142.97
2022-07-27T18:43:51.001Z,98141.09
2022-07-27T18:45:55.765Z,98141.56
2022-07-27T18:48:01.040Z,98145.34
2022-07-27T18:50:06.270Z,98148.63
2022-07-27T18:52:10.874Z,98151.19
2022-07-27T18:54:15.554Z,98159.97
2022-07-27T18:56:22.713Z,98163.06
2022-07-27T18:58:27.900Z,98161.69
2022-07-27T19:00:33.564Z,98162.00
2022-07-27T19:02:39.469Z,98162.31
2022-07-27T19:04:44.360Z,98170.03
2022-07-27T19:06:49.487Z,98167.63
2022-07-27T19:08:54.600Z,98168.75
2022-07-27T19:10:59.467Z,98174.69
2022-07-27T19:13:06.760Z,98177.09
2022-07-27T19:15:11.719Z,98177.81
2022-07-27T19:17:16.470Z,98184.13
2022-07-27T19:19:23.387Z,98183.59
2022-07-27T19:21:28.608Z,98186.56
2022-07-27T19:23:33.446Z,98196.78
2022-07-27T19:25:38.045Z,98199.19
2022-07-27T19:27:42.767Z,98206.16
2022-07-27T19:29:50.043Z,98203.63
2022-07-27T19:31:54.597Z,98208.88
2022-07-27T19:33:59.188Z,98205.34
2022-07-27T19:36:03.835Z,98206.34
2022-07-27T19:38:08.595Z,98209.28
2022-07-27T19:40:42.778Z,98212.22
2022-07-27T19:42:39.563Z,98219.94
2022-07-27T19:44:44.206Z,98215.59
2022-07-27T19:46:51.430Z,98214.78
2022-07-27T19:48:56.138Z,98218.72
2022-07-27T19:51:06.369Z,98219.09
2022-07-27T19:53:11.809Z,98216.31
2022-07-27T19:55:17.039Z,98222.03
2022-07-27T19:57:21.654Z,98218.97
2022-07-27T19:59:26.280Z,98220.53
2022-07-27T20:01:30.962Z,98212.56
2022-07-27T20:03:52.465Z,98224.00
2022-07-27T20:05:59.853Z,98229.06
2022-07-27T20:08:04.520Z,98231.72
2022-07-27T20:10:09.466Z,98240.50
2022-07-27T20:12:14.089Z,98234.09
2022-07-27T20:14:22.234Z,98237.84
2022-07-27T20:16:27.035Z,98237.31
2022-07-27T20:18:31.954Z,98229.47
2022-07-27T20:20:40.243Z,98232.13
2022-07-27T20:22:44.886Z,98229.06
2022-07-27T20:24:49.477Z,98229.91
2022-07-27T20:26:54.225Z,98231.59
2022-07-27T20:28:59.947Z,98231.00
2022-07-27T20:31:04.680Z,98226.28
2022-07-27T20:33:09.343Z,98235.63
2022-07-27T20:35:14.026Z,98241.50
2022-07-27T20:37:21.251Z,98241.34
2022-07-27T20:39:26.392Z,98244.41
2022-07-27T20:41:31.057Z,98242.13
2022-07-27T20:43:35.946Z,98245.22
2022-07-27T20:45:40.879Z,98239.22
2022-07-27T20:47:45.488Z,98237.66
2022-07-27T20:49:50.102Z,98241.69
2022-07-27T20:51:54.834Z,98243.63
2022-07-27T20:54:02.096Z,98238.06
2022-07-27T20:56:06.884Z,98243.06
2022-07-27T20:58:11.752Z,98239.59
2022-07-27T21:00:16.964Z,98240.25
2022-07-27T21:02:21.614Z,98245.97
2022-07-27T21:04:26.592Z,98247.22
2022-07-27T21:06:31.589Z,98250.00
2022-07-27T21:08:36.224Z,98246.63
2022-07-27T21:10:43.431Z,98254.44
2022-07-27T21:12:48.068Z,98247.47
2022-07-27T21:14:54.722Z,98255.81
2022-07-27T21:16:59.673Z,98250.22
2022-07-27T21:19:04.412Z,98254.66
2022-07-27T21:21:09.047Z,98250.13
2022-07-27T21:23:26.033Z,98253.16
2022-07-27T21:25:30.668Z,98256.44
2022-07-27T21:27:38.177Z,98258.53
2022-07-27T21:29:45.858Z,98259.91
2022-07-27T21:31:51.146Z,98255.16
2022-07-27T21:33:55.801Z,98253.38
2022-07-27T21:36:00.459Z,98263.97
2022-07-27T21:38:05.078Z,98257.81
2022-07-27T21:40:10.369Z,98264.22
2022-07-27T21:42:15.082Z,98269.50
2022-07-27T21:44:23.659Z,98275.66
2022-07-27T21:46:28.429Z,98274.09
2022-07-27T21:48:33.275Z,98273.00
2022-07-27T21:50:37.823Z,98275.66
2022-07-27T21:52:42.439Z,98278.31
2022-07-27T21:54:47.113Z,98280.09
2022-07-27T21:56:51.740Z,98282.88
2022-07-27T21:58:56.418Z,98281.72
2022-07-27T22:01:03.857Z,98287.97
2022-07-27T22:03:08.549Z,98288.97
2022-07-27T22:05:14.426Z,98288.25
2022-07-27T22:07:19.533Z,98277.81
2022-07-27T22:09:24.372Z,98287.53
2022-07-27T22:11:28.952Z,98279.97
2022-07-27T22:13:33.525Z,98280.25
2022-07-27T22:15:38.124Z,98276.69
2022-07-27T22:17:50.428Z,98274.56
2022-07-27T22:19:55.621Z,98276.88
2022-07-27T22:22:06.194Z,98277.13
2022-07-27T22:24:13.935Z,98275.31
2022-07-27T22:26:18.831Z,98274.75
2022-07-27T22:28:25.417Z,98279.06
2022-07-27T22:30:31.107Z,98275.69
2022-07-27T22:32:35.836Z,98278.22
2022-07-27T22:34:43.240Z,98284.25
2022-07-27T22:36:47.864Z,98284.88
2022-07-27T22:38:53.102Z,98282.63
2022-07-27T22:40:58.069Z,98291.75
2022-07-27T22:43:02.636Z,98285.78
2022-07-27T22:45:07.893Z,98287.47
2022-07-27T22:47:12.640Z,98291.09
2022-07-27T22:49:17.475Z,98291.31
2022-07-27T22:51:24.614Z,98293.72
2022-07-27T22:53:29.322Z,98293.00
2022-07-27T22:55:33.942Z,98287.56
2022-07-27T22:57:38.569Z,98294.66
2022-07-27T22:59:43.504Z,98293.84
2022-07-27T23:01:48.630Z,98289.53
2022-07-27T23:03:53.332Z,98282.94
2022-07-27T23:05:57.978Z,98284.72
2022-07-27T23:08:05.134Z,98287.72
2022-07-27T23:10:30.853Z,98284.00
2022-07-27T23:12:35.656Z,98285.69
2022-07-27T23:14:40.270Z,98284.84
2022-07-27T23:16:45.130Z,98287.84
2022-07-27T23:18:50.055Z,98281.97
2022-07-27T23:20:54.678Z,98288.72
2022-07-27T23:22:59.261Z,98284.94
2022-07-27T23:25:07.316Z,98285.69
2022-07-27T23:27:11.926Z,98290.72
2022-07-27T23:29:16.489Z,98282.94
2022-07-27T23:31:21.139Z,98286.41
2022-07-27T23:33:25.758Z,98287.47
2022-07-27T23:35:30.597Z,98284.84
2022-07-27T23:37:35.185Z,98283.88
2022-07-27T23:39:39.819Z,98285.69
2022-07-27T23:41:49.966Z,98283.44
2022-07-27T23:43:55.015Z,98291.72
2022-07-27T23:45:59.646Z,98283.78
2022-07-27T23:48:04.253Z,98286.56
2022-07-27T23:50:09.271Z,98286.66
2022-07-27T23:52:13.987Z,98288.34
2022-07-27T23:54:18.601Z,98288.34
2022-07-27T23:56:23.213Z,98288.84
2022-07-27T23:58:30.395Z,98281.53
